West Hollywood, California
Current Conditions -  °F | °C
As of 10:51 PM on Friday 24 Oct 2014 (Local Time) from KSMO Reporting Station
Clear Clear  
Wind Chill: 67°   Ceiling: Unl
Heat Index: 67°   Visibility: 10mi
Dew Point: 48°   Wind: 3mph
Humidity: 51%   Direction: 310°NW
Pressure: 30"   Gusts: NA
Location:  34.09°N, 118.37°W
Report Text: KSMO 250551Z AUTO 31003KT 10SM CLR 19/09 A3000 RMK AO2 SLP157 T01940089 10239 20189 53016
Loading
Personal Weather Stations






























Interactive Weather Map
Tropical Storm Tracking
New forecast layout! Learn more

10-Day Weather Forecast

Advertisements
Track Severe Weather on mobile